createdAt,value
2022-08-28T00:04:43.718Z,60.27
2022-08-28T00:11:10.574Z,60.41
2022-08-28T00:13:37.884Z,60.40
2022-08-28T00:16:05.592Z,60.25
2022-08-28T00:18:32.916Z,60.24
2022-08-28T00:21:01.380Z,60.17
2022-08-28T00:23:42.251Z,60.01
2022-08-28T00:26:11.970Z,59.97
2022-08-28T00:28:39.162Z,60.07
2022-08-28T00:35:06.237Z,60.15
2022-08-28T00:37:33.439Z,60.32
2022-08-28T00:40:00.847Z,60.27
2022-08-28T00:42:29.326Z,60.10
2022-08-28T00:44:56.530Z,59.87
2022-08-28T00:47:23.711Z,59.88
2022-08-28T00:49:55.843Z,60.08
2022-08-28T00:57:20.647Z,60.17
2022-08-28T00:59:54.193Z,60.33
2022-08-28T01:06:30.687Z,60.62
2022-08-28T01:08:59.098Z,60.51
2022-08-28T01:11:27.923Z,60.54
2022-08-28T01:13:58.399Z,60.29
2022-08-28T01:16:32.331Z,60.53
2022-08-28T01:19:04.592Z,60.92
2022-08-28T01:22:16.539Z,60.74
2022-08-28T01:24:48.358Z,60.91
2022-08-28T01:27:16.420Z,61.00
2022-08-28T01:29:45.193Z,61.13
2022-08-28T01:32:31.779Z,61.29
2022-08-28T01:34:59.766Z,61.41
2022-08-28T01:37:27.020Z,61.34
2022-08-28T01:39:54.370Z,61.29
2022-08-28T01:46:21.315Z,61.47
2022-08-28T01:48:49.233Z,61.27
2022-08-28T01:51:17.963Z,61.29
2022-08-28T01:53:46.822Z,61.44
2022-08-28T01:56:16.617Z,61.17
2022-08-28T02:02:56.077Z,60.96
2022-08-28T02:05:26.026Z,60.81
2022-08-28T02:11:52.782Z,61.28
2022-08-28T02:18:21.164Z,61.79
2022-08-28T02:20:48.375Z,61.77
2022-08-28T02:23:17.265Z,61.74
2022-08-28T02:29:54.055Z,61.37
2022-08-28T02:32:21.513Z,61.10
2022-08-28T02:34:48.697Z,61.42
2022-08-28T02:37:15.970Z,61.17
2022-08-28T02:39:43.300Z,61.38
2022-08-28T02:42:10.458Z,61.25
2022-08-28T02:44:38.277Z,61.09
2022-08-28T02:47:05.649Z,61.29
2022-08-28T02:57:42.575Z,61.49
2022-08-28T03:00:13.725Z,61.56
2022-08-28T03:02:43.333Z,61.37
2022-08-28T03:05:11.394Z,61.51
2022-08-28T03:07:38.703Z,61.30
2022-08-28T03:10:08.614Z,61.13
2022-08-28T03:16:45.683Z,61.26
2022-08-28T03:19:13.128Z,61.62
2022-08-28T03:21:40.332Z,61.68
2022-08-28T03:24:07.696Z,61.79
2022-08-28T03:30:44.601Z,61.85
2022-08-28T03:33:11.925Z,62.07
2022-08-28T03:39:38.865Z,62.23
2022-08-28T03:42:06.114Z,62.27
2022-08-28T03:44:34.228Z,62.07
2022-08-28T03:47:01.549Z,61.92
2022-08-28T03:49:28.755Z,62.04
2022-08-28T03:51:56.065Z,61.92
2022-08-28T03:54:23.441Z,61.74
2022-08-28T03:56:50.827Z,61.85
2022-08-28T03:59:19.048Z,61.82
2022-08-28T04:01:46.409Z,61.70
2022-08-28T04:04:13.876Z,61.94
2022-08-28T04:06:41.892Z,61.69
2022-08-28T04:09:09.162Z,61.50
2022-08-28T04:11:41.377Z,61.23
2022-08-28T04:14:10.459Z,61.44
2022-08-28T04:16:38.415Z,61.54
2022-08-28T04:19:05.687Z,61.36
2022-08-28T04:21:32.880Z,61.24
2022-08-28T04:24:00.100Z,61.48
2022-08-28T04:26:27.941Z,61.65
2022-08-28T04:28:55.995Z,61.82
2022-08-28T04:31:31.805Z,61.77
2022-08-28T04:34:05.494Z,61.86
2022-08-28T04:36:33.481Z,61.92
2022-08-28T04:39:02.614Z,61.77
2022-08-28T04:41:30.059Z,61.80
2022-08-28T04:43:58.665Z,61.60
2022-08-28T04:46:25.962Z,61.48
2022-08-28T04:48:53.204Z,61.34
2022-08-28T04:59:13.738Z,62.23
2022-08-28T05:01:42.474Z,62.33
2022-08-28T05:08:09.199Z,62.70
2022-08-28T05:10:40.264Z,62.46
2022-08-28T05:13:10.502Z,62.21
2022-08-28T05:15:43.271Z,61.90
2022-08-28T05:18:12.017Z,62.25
2022-08-28T05:20:46.121Z,62.34
2022-08-28T05:31:34.106Z,62.93
2022-08-28T05:34:02.906Z,62.49
2022-08-28T05:36:34.709Z,62.48
2022-08-28T05:39:05.820Z,62.83
2022-08-28T05:41:34.293Z,62.73
2022-08-28T05:44:06.550Z,62.76
2022-08-28T05:46:34.506Z,62.54
2022-08-28T05:49:01.984Z,62.22
2022-08-28T05:51:30.123Z,62.22
2022-08-28T05:53:58.451Z,62.09
2022-08-28T05:56:30.003Z,62.11
2022-08-28T06:04:26.127Z,62.18
2022-08-28T06:06:54.283Z,62.38
2022-08-28T06:13:22.120Z,62.21
2022-08-28T06:16:17.130Z,62.21
2022-08-28T06:18:44.563Z,61.99
2022-08-28T06:25:11.197Z,62.74
2022-08-28T06:27:38.555Z,62.44
2022-08-28T06:38:12.889Z,61.88
2022-08-28T06:40:49.258Z,61.67
2022-08-28T06:43:23.551Z,61.39
2022-08-28T06:49:50.516Z,61.23
2022-08-28T06:52:18.101Z,60.97
2022-08-28T06:54:55.632Z,60.84
2022-08-28T07:01:54.962Z,61.01
2022-08-28T07:12:31.724Z,60.95
2022-08-28T07:14:59.173Z,60.90
2022-08-28T07:17:26.482Z,60.48
2022-08-28T07:24:57.874Z,60.02
2022-08-28T07:31:29.533Z,59.79
2022-08-28T07:33:57.136Z,59.72
2022-08-28T07:36:29.842Z,59.71
2022-08-28T07:38:59.707Z,59.18
2022-08-28T07:41:31.329Z,59.25
2022-08-28T07:43:59.358Z,59.09
2022-08-28T07:46:26.874Z,59.28
2022-08-28T08:01:24.667Z,59.10
2022-08-28T08:03:51.967Z,58.92
2022-08-28T08:10:34.801Z,58.84
2022-08-28T08:13:02.017Z,58.94
2022-08-28T08:15:31.339Z,58.42
2022-08-28T08:17:58.849Z,58.07
2022-08-28T08:24:27.351Z,58.17
2022-08-28T08:27:00.155Z,58.47
2022-08-28T08:29:35.267Z,58.56
2022-08-28T08:40:13.729Z,57.84
2022-08-28T08:42:48.697Z,57.31
2022-08-28T08:45:19.949Z,56.68
2022-08-28T08:47:54.138Z,56.55
2022-08-28T08:54:31.137Z,56.99
2022-08-28T08:57:02.291Z,56.86
2022-08-28T08:59:34.478Z,56.18
2022-08-28T09:02:18.917Z,56.08
2022-08-28T09:10:00.048Z,55.08
2022-08-28T09:12:31.382Z,54.90
2022-08-28T09:23:12.689Z,53.12
2022-08-28T09:26:04.444Z,52.04
2022-08-28T09:28:39.372Z,52.02
2022-08-28T09:31:10.706Z,52.33
2022-08-28T09:33:45.074Z,51.92
2022-08-28T09:40:32.274Z,51.73
2022-08-28T09:43:25.430Z,51.02
2022-08-28T09:46:02.769Z,50.78
2022-08-28T09:48:41.461Z,49.96
2022-08-28T09:55:18.038Z,50.75
2022-08-28T09:57:46.844Z,50.61
2022-08-28T10:05:47.451Z,49.38
2022-08-28T10:08:23.523Z,49.56
2022-08-28T10:11:01.198Z,49.54
2022-08-28T10:13:39.640Z,49.63
2022-08-28T10:20:37.845Z,49.39
2022-08-28T10:23:24.710Z,49.37
2022-08-28T10:26:25.008Z,48.40
2022-08-28T10:29:09.765Z,48.48
2022-08-28T10:32:15.049Z,48.11
2022-08-28T10:35:08.897Z,48.10
2022-08-28T10:37:47.738Z,47.69
2022-08-28T10:40:26.300Z,48.34
2022-08-28T10:46:58.058Z,47.92
2022-08-28T10:49:39.728Z,47.35
2022-08-28T10:52:19.634Z,47.93
2022-08-28T11:02:59.454Z,46.41
2022-08-28T11:05:36.616Z,45.83
2022-08-28T11:08:20.253Z,45.86
2022-08-28T11:14:57.537Z,44.46
2022-08-28T11:17:25.112Z,45.36
2022-08-28T11:20:01.666Z,45.53
2022-08-28T11:22:38.248Z,44.15
2022-08-28T11:25:34.387Z,42.08
2022-08-28T11:28:37.098Z,42.55
2022-08-28T11:35:30.744Z,36.93
2022-08-28T11:37:59.104Z,38.16
2022-08-28T11:40:32.812Z,39.11
2022-08-28T11:43:16.201Z,39.69
2022-08-28T11:49:40.974Z,38.58
2022-08-28T11:56:41.151Z,39.11
2022-08-28T11:59:35.213Z,38.43
2022-08-28T12:02:40.410Z,39.39
2022-08-28T12:08:59.161Z,40.75
2022-08-28T12:11:59.395Z,39.91
2022-08-28T12:14:26.505Z,42.47
2022-08-28T12:16:59.731Z,42.98
2022-08-28T12:19:34.093Z,42.96
2022-08-28T12:22:16.266Z,42.65
2022-08-28T12:29:36.092Z,43.09
2022-08-28T12:32:40.564Z,43.29
2022-08-28T12:35:22.686Z,42.72
2022-08-28T12:37:56.080Z,42.94
2022-08-28T12:44:33.496Z,43.03
2022-08-28T12:47:59.417Z,42.44
2022-08-28T12:50:33.524Z,41.24
2022-08-28T12:53:06.413Z,41.54
2022-08-28T12:55:34.623Z,39.91
2022-08-28T12:58:01.903Z,39.59
2022-08-28T13:04:37.252Z,42.38
2022-08-28T13:11:04.943Z,44.32
2022-08-28T13:13:46.686Z,45.51
2022-08-28T13:16:35.272Z,45.81
2022-08-28T13:19:05.497Z,45.50
2022-08-28T13:30:16.648Z,44.33
2022-08-28T13:33:02.547Z,43.34
2022-08-28T13:35:37.025Z,44.66
2022-08-28T13:43:08.156Z,39.94
2022-08-28T13:45:44.191Z,40.29
2022-08-28T13:48:19.866Z,39.41
2022-08-28T13:50:52.938Z,38.86
2022-08-28T13:53:21.452Z,40.60
2022-08-28T13:55:50.491Z,41.02
2022-08-28T14:02:27.826Z,43.13
2022-08-28T14:04:55.090Z,44.33
2022-08-28T14:07:22.569Z,45.46
2022-08-28T14:09:54.052Z,46.59
2022-08-28T14:12:32.695Z,47.96
2022-08-28T14:15:01.312Z,49.13
2022-08-28T14:21:21.054Z,47.30
2022-08-28T14:23:48.344Z,48.58
2022-08-28T14:30:15.494Z,47.95
2022-08-28T14:32:42.942Z,48.14
2022-08-28T14:35:10.893Z,48.94
2022-08-28T14:41:47.743Z,49.02
2022-08-28T14:44:15.705Z,48.84
2022-08-28T14:46:46.192Z,49.38
2022-08-28T14:53:14.874Z,48.97
2022-08-28T14:55:47.825Z,47.63
2022-08-28T14:58:17.651Z,44.68
2022-08-28T15:00:49.263Z,44.77
2022-08-28T15:08:19.481Z,40.85
2022-08-28T15:10:46.824Z,40.78
2022-08-28T15:13:15.323Z,41.03
2022-08-28T15:19:52.338Z,42.16
2022-08-28T15:22:27.485Z,42.90
2022-08-28T15:24:55.677Z,43.81
2022-08-28T15:27:23.015Z,44.13
2022-08-28T15:29:50.441Z,44.59
2022-08-28T15:32:17.615Z,44.94
2022-08-28T15:34:44.832Z,45.78
2022-08-28T15:37:13.348Z,46.31
2022-08-28T15:39:40.781Z,46.85
2022-08-28T15:42:08.742Z,46.80
2022-08-28T15:44:36.366Z,47.30
2022-08-28T15:47:04.029Z,47.67
2022-08-28T15:53:27.665Z,48.51
2022-08-28T15:55:54.934Z,49.07
2022-08-28T16:06:20.748Z,49.18
2022-08-28T16:08:49.440Z,48.90
2022-08-28T16:11:19.970Z,49.12
2022-08-28T16:13:47.215Z,49.41
2022-08-28T16:16:14.639Z,48.79
2022-08-28T16:19:05.561Z,49.54
2022-08-28T16:21:33.463Z,49.87
2022-08-28T16:35:56.985Z,54.21
2022-08-28T16:39:17.976Z,55.91
2022-08-28T16:41:45.161Z,55.75
2022-08-28T16:44:12.457Z,55.14
2022-08-28T16:47:11.016Z,54.98
2022-08-28T16:49:38.244Z,55.21
2022-08-28T16:52:19.941Z,55.91
2022-08-28T16:55:25.355Z,56.46
2022-08-28T16:58:47.059Z,55.86
2022-08-28T17:01:18.001Z,56.07
2022-08-28T17:03:49.128Z,56.54
2022-08-28T17:06:24.026Z,55.82
2022-08-28T17:17:01.530Z,56.05
2022-08-28T17:19:28.745Z,55.13
2022-08-28T17:21:55.966Z,55.06
2022-08-28T17:32:24.523Z,56.04
2022-08-28T17:34:51.962Z,56.35
2022-08-28T17:41:18.470Z,56.66
2022-08-28T17:43:45.699Z,56.73
2022-08-28T17:46:20.190Z,56.66
2022-08-28T17:48:54.312Z,56.92
2022-08-28T17:55:32.677Z,56.69
2022-08-28T17:57:59.861Z,56.95
2022-08-28T18:00:27.177Z,56.88
2022-08-28T18:07:03.844Z,57.06
2022-08-28T18:09:31.150Z,57.06
2022-08-28T18:15:59.118Z,57.57
2022-08-28T18:18:34.434Z,57.68
2022-08-28T18:21:03.934Z,57.89
2022-08-28T18:23:31.218Z,58.16
2022-08-28T18:25:58.441Z,58.20
2022-08-28T18:28:26.434Z,58.68
2022-08-28T18:30:53.903Z,58.67
2022-08-28T18:33:24.537Z,58.55
2022-08-28T18:35:53.126Z,57.82
2022-08-28T18:38:23.110Z,57.75
2022-08-28T18:40:50.591Z,57.89
2022-08-28T18:43:17.868Z,58.00
2022-08-28T18:45:45.026Z,58.15
2022-08-28T18:48:12.539Z,58.05
2022-08-28T18:50:44.400Z,58.05
2022-08-28T18:53:15.541Z,58.21
2022-08-28T18:55:43.569Z,58.53
2022-08-28T18:58:15.099Z,58.32
2022-08-28T19:00:44.143Z,58.42
2022-08-28T19:03:12.194Z,58.48
2022-08-28T19:05:39.991Z,58.53
2022-08-28T19:08:07.876Z,58.37
2022-08-28T19:10:37.174Z,58.57
2022-08-28T19:13:05.952Z,58.49
2022-08-28T19:15:34.756Z,58.83
2022-08-28T19:18:03.710Z,58.63
2022-08-28T19:20:32.211Z,58.84
2022-08-28T19:23:00.337Z,58.88
2022-08-28T19:25:29.711Z,59.04
2022-08-28T19:28:01.725Z,59.09
2022-08-28T19:30:33.565Z,58.67
2022-08-28T19:33:04.788Z,58.50
2022-08-28T19:35:32.910Z,58.63
2022-08-28T19:38:00.699Z,58.70
2022-08-28T19:40:28.266Z,58.89
2022-08-28T19:42:56.088Z,58.92
2022-08-28T19:45:23.939Z,58.66
2022-08-28T19:47:51.561Z,58.61
2022-08-28T19:50:19.852Z,58.33
2022-08-28T19:52:47.617Z,58.10
2022-08-28T19:55:22.934Z,58.48
2022-08-28T19:57:50.497Z,58.65
2022-08-28T20:00:21.349Z,58.59
2022-08-28T20:02:50.318Z,58.81
2022-08-28T20:05:18.707Z,58.95
2022-08-28T20:07:46.351Z,59.03
2022-08-28T20:10:15.471Z,58.91
2022-08-28T20:12:48.246Z,58.75
2022-08-28T20:15:18.529Z,58.94
2022-08-28T20:17:49.641Z,58.95
2022-08-28T20:20:21.271Z,59.07
2022-08-28T20:22:49.215Z,58.90
2022-08-28T20:25:22.106Z,59.13
2022-08-28T20:27:49.660Z,59.16
2022-08-28T20:30:18.044Z,58.85
2022-08-28T20:32:45.618Z,58.86
2022-08-28T20:35:13.862Z,58.83
2022-08-28T20:37:45.769Z,59.11
2022-08-28T20:40:16.674Z,59.04
2022-08-28T20:42:45.380Z,59.02
2022-08-28T20:45:14.117Z,58.84
2022-08-28T20:47:41.688Z,58.67
2022-08-28T20:50:10.162Z,58.74
2022-08-28T20:52:38.563Z,58.74
2022-08-28T20:55:07.916Z,58.91
2022-08-28T20:57:36.269Z,58.98
2022-08-28T21:00:07.175Z,59.01
2022-08-28T21:02:34.756Z,59.04
2022-08-28T21:05:02.578Z,59.29
2022-08-28T21:07:30.262Z,59.44
2022-08-28T21:10:06.094Z,59.38
2022-08-28T21:12:36.886Z,58.87
2022-08-28T21:15:06.495Z,58.84
2022-08-28T21:17:34.597Z,58.91
2022-08-28T21:20:06.399Z,59.13
2022-08-28T21:22:35.867Z,59.08
2022-08-28T21:25:05.734Z,59.40
2022-08-28T21:27:33.730Z,59.43
2022-08-28T21:30:02.741Z,59.47
2022-08-28T21:32:31.461Z,59.67
2022-08-28T21:34:59.158Z,59.90
2022-08-28T21:37:26.727Z,59.89
2022-08-28T21:39:56.455Z,59.82
2022-08-28T21:42:24.852Z,59.66
2022-08-28T21:44:52.786Z,59.76
2022-08-28T21:47:21.690Z,59.79
2022-08-28T21:49:53.920Z,59.79
2022-08-28T21:52:24.766Z,59.69
2022-08-28T21:55:00.784Z,59.65
2022-08-28T21:57:29.243Z,59.80
2022-08-28T21:59:57.054Z,59.61
2022-08-28T22:02:25.142Z,59.60
2022-08-28T22:04:52.938Z,59.67
2022-08-28T22:07:21.041Z,59.66
2022-08-28T22:09:48.602Z,59.73
2022-08-28T22:15:53.768Z,59.89
2022-08-28T22:18:21.453Z,59.67
2022-08-28T22:20:55.836Z,59.60
2022-08-28T22:23:23.808Z,59.36
2022-08-28T22:25:51.618Z,59.48
2022-08-28T22:28:19.761Z,59.53
2022-08-28T22:30:47.349Z,59.40
2022-08-28T22:33:15.189Z,59.49
2022-08-28T22:35:42.826Z,59.56
2022-08-28T22:38:10.327Z,59.72
2022-08-28T22:40:39.461Z,59.77
2022-08-28T22:43:07.341Z,59.60
2022-08-28T22:45:34.967Z,59.73
2022-08-28T22:48:02.845Z,59.86
2022-08-28T22:50:30.395Z,59.97
2022-08-28T22:52:57.983Z,59.80
2022-08-28T22:55:25.583Z,59.86
2022-08-28T23:09:28.412Z,60.33
2022-08-28T23:11:56.900Z,60.26
2022-08-28T23:14:27.799Z,60.42
2022-08-28T23:16:55.450Z,60.37
2022-08-28T23:19:58.027Z,60.31
2022-08-28T23:22:25.807Z,60.43
2022-08-28T23:28:45.458Z,60.72
2022-08-28T23:31:13.258Z,60.71
2022-08-28T23:33:41.019Z,60.76
2022-08-28T23:36:35.390Z,60.77
2022-08-28T23:39:04.090Z,60.65
2022-08-28T23:45:23.459Z,60.70
2022-08-28T23:47:51.498Z,60.59
2022-08-28T23:50:58.743Z,60.50
2022-08-28T23:53:26.562Z,60.51
2022-08-28T23:59:36.168Z,60.39
